Lima, OH (45801)

1:18 PM EST on December 08, 2016 (GMT -0500)
northwest lima | | Change Station

Elev 879 ft 40.75 °N, 84.13 °W | Updated 6 minutes ago

Overcast
Overcast
23.9 °F
Feels Like 24 °F
N
2.2
Wind Variable Wind from SSW

Today
High -- | Low -- °F
--% Chance of Precip.
Yesterday
High -- | Low -- °F
Precip. -- in
Pressure 30.25 in
Visibility 5.0 miles
Clouds Overcast 2400 ft
Windchill 24 °F
Dew Point 16 °F
Humidity 72%
Rainfall 0.00 in
Snow Depth Not available.
7:48 AM 5:08 PM
Waxing Gibbous, 65% visible
METAR KAOH 081753Z AUTO 26019G25KT 5SM -SN OVC024 M06/M08 A3021 RMK AO2 SLP241 P0000 60000 T10561083 11044 21056 50001
Pressure 30.25 in
Visibility 5.0 miles
Clouds Overcast 2400 ft
Windchill 24 °F
Dew Point 16 °F
Humidity 72%
Rainfall 0.00 in
Snow Depth Not available.
7:48 AM 5:08 PM
Waxing Gibbous, 65% visible
METAR KAOH 081753Z AUTO 26019G25KT 5SM -SN OVC024 M06/M08 A3021 RMK AO2 SLP241 P0000 60000 T10561083 11044 21056 50001

10-Day Weather Forecast

Almanac

Astronomy

Dec. 08, 2016 Rise Set
Actual Time
Civil Twilight
Nautical Twilight
Astronomical Twilight
Moon
Length of Visible Light
Length of Day
Tomorrow will be .
, % of the Moon is Illuminated

Today's Extremes

State Highs State Lows

Community

WunderPhotos

Upload Photos

1,956,277 photos uploaded!

WunderBlog® & News

Nearby

Air Quality

  Air Quality AQ Index Pollutant
Not available.

Snow Depth

Station Depth Elevation

Earthquake Activity

City Distance Mag. Time & Date
Minimum magnitude displayed is 2.5.

Coastal Water Temperatures

Place Temperature

Stations

Nearby Weather Stations

Station Location Temp. Windchill Dew Point Humidity Wind Precip. Elev Updated Type
                   

Watches & Warnings

There are currently no watches in effect.